Time;durP1;ratioP1;P1;durP2;ratioP2;P2;SDS_P1;SDS_P2;PMS_P1;PMS_P2;Temp;Humidity;BMP_temperature;BMP_pressure;BME280_temperature;BME280_humidity;BME280_pressure;Samples;Min_cycle;Max_cycle;Signal;HPM_P1;HPM_P2
2021/01/18 00:01:30;;;;;;;0.00;0.00;;;3.30;99.90;;;;;;5010058;28;20041;-93
2021/01/18 00:03:56;;;;;;;0.00;0.00;;;3.30;99.90;;;;;;4993853;28;20032;-93
2021/01/18 00:06:23;;;;;;;0.00;0.00;;;3.30;99.90;;;;;;5008270;28;20065;-94
2021/01/18 00:08:49;;;;;;;0.52;0.30;;;3.20;99.90;;;;;;5006588;28;20376;-93
2021/01/18 00:11:20;;;;;;;0.00;0.00;;;3.10;99.90;;;;;;5006599;28;20073;-92
2021/01/18 00:13:47;;;;;;;0.00;0.00;;;3.10;99.90;;;;;;5007032;28;20030;-93
2021/01/18 00:16:14;;;;;;;0.00;0.00;;;3.10;99.90;;;;;;5007027;28;20038;-93
2021/01/18 00:18:40;;;;;;;0.00;0.00;;;3.10;99.90;;;;;;5006939;28;20026;-93
2021/01/18 00:21:06;;;;;;;0.10;0.10;;;3.00;99.90;;;;;;5006488;28;20026;-93
2021/01/18 00:23:32;;;;;;;0.00;0.00;;;2.90;99.90;;;;;;4990571;28;20031;-93
2021/01/18 00:25:58;;;;;;;10.30;0.80;;;2.90;99.90;;;;;;5006645;28;20040;-92
2021/01/18 00:28:24;;;;;;;0.00;0.00;;;2.90;99.90;;;;;;4990407;28;20030;-93
2021/01/18 00:30:49;;;;;;;0.00;0.00;;;3.10;99.90;;;;;;5006186;28;20098;-94
2021/01/18 00:33:15;;;;;;;0.00;0.00;;;3.10;99.90;;;;;;5006091;28;20121;-92
2021/01/18 00:35:41;;;;;;;0.00;0.00;;;3.00;99.90;;;;;;5006006;28;20033;-92
2021/01/18 00:38:06;;;;;;;0.00;0.00;;;3.00;99.90;;;;;;4990037;28;20038;-93
2021/01/18 00:40:32;;;;;;;0.00;0.00;;;3.10;99.90;;;;;;5006499;28;20038;-93
2021/01/18 00:42:58;;;;;;;0.00;0.00;;;3.00;99.90;;;;;;5006581;28;20086;-93
2021/01/18 00:45:24;;;;;;;0.00;0.00;;;2.90;99.90;;;;;;4990236;28;20080;-94
2021/01/18 00:47:53;;;;;;;0.00;0.00;;;2.90;99.90;;;;;;5006287;28;20034;-92
2021/01/18 00:50:21;;;;;;;0.00;0.00;;;2.90;99.90;;;;;;4989924;28;20125;-93
2021/01/18 00:52:49;;;;;;;0.00;0.00;;;2.80;99.90;;;;;;5008998;28;20053;-93
2021/01/18 00:55:20;;;;;;;0.00;0.00;;;2.70;99.90;;;;;;5009786;28;20036;-93
2021/01/18 00:57:59;;;;;;;0.00;0.00;;;2.60;99.90;;;;;;5011264;28;20033;-92
2021/01/18 01:00:27;;;;;;;0.00;0.00;;;2.70;99.90;;;;;;4993390;28;20052;-92
2021/01/18 01:02:53;;;;;;;0.00;0.00;;;2.50;99.90;;;;;;4992877;28;20065;-92
2021/01/18 01:05:25;;;;;;;0.00;0.00;;;2.40;99.90;;;;;;5009677;28;20030;-93
2021/01/18 01:07:53;;;;;;;0.00;0.00;;;2.40;99.90;;;;;;5006033;28;20033;-93
2021/01/18 01:10:31;;;;;;;0.00;0.00;;;2.50;99.90;;;;;;4989952;28;20031;-92
2021/01/18 01:12:59;;;;;;;0.00;0.00;;;2.50;99.90;;;;;;5005658;28;20069;-93
2021/01/18 01:15:25;;;;;;;0.00;0.00;;;2.40;99.90;;;;;;5005879;28;20483;-92
2021/01/18 01:17:51;;;;;;;0.00;0.00;;;2.50;99.90;;;;;;5005686;28;20069;-93
2021/01/18 01:20:18;;;;;;;0.00;0.00;;;2.70;99.90;;;;;;5005937;28;20030;-92
2021/01/18 01:22:44;;;;;;;0.00;0.00;;;2.80;99.90;;;;;;5005482;28;20058;-93
2021/01/18 01:25:11;;;;;;;0.00;0.00;;;2.70;99.90;;;;;;5005814;28;20087;-93
2021/01/18 01:27:37;;;;;;;0.00;0.00;;;2.80;99.90;;;;;;5005768;28;20590;-93
2021/01/18 01:30:06;;;;;;;0.00;0.00;;;2.80;99.90;;;;;;5005844;28;20031;-93
2021/01/18 01:32:32;;;;;;;0.00;0.00;;;2.90;99.90;;;;;;5006073;28;20589;-93
2021/01/18 01:34:58;;;;;;;0.00;0.00;;;2.80;99.90;;;;;;5006149;28;20031;-93
2021/01/18 01:37:23;;;;;;;0.00;0.00;;;2.80;99.90;;;;;;5005306;28;20034;-93
2021/01/18 01:39:49;;;;;;;0.00;0.00;;;2.80;99.90;;;;;;5005924;28;20026;-93
2021/01/18 01:42:35;;;;;;;0.00;0.00;;;2.80;99.90;;;;;;5005342;28;20090;-92
2021/01/18 01:45:02;;;;;;;0.00;0.00;;;2.80;99.90;;;;;;4952581;28;20035;-93
2021/01/18 01:47:42;;;;;;;0.00;0.00;;;2.60;99.90;;;;;;4952719;28;20074;-93
2021/01/18 01:50:15;;;;;;;0.00;0.00;;;2.60;99.90;;;;;;4952615;28;20055;-93
2021/01/18 01:52:50;;;;;;;0.00;0.00;;;2.50;99.90;;;;;;4940107;29;20051;-93
2021/01/18 01:55:42;;;;;;;0.00;0.00;;;2.60;99.90;;;;;;4933705;29;20031;-93
2021/01/18 01:58:08;;;;;;;0.00;0.00;;;2.60;99.90;;;;;;4930464;29;20163;-93
2021/01/18 02:00:37;;;;;;;0.00;0.00;;;2.50;99.90;;;;;;4933513;29;20035;-93
2021/01/18 02:03:11;;;;;;;0.00;0.00;;;2.50;99.90;;;;;;4933123;29;20035;-93
2021/01/18 02:05:38;;;;;;;0.00;0.00;;;2.50;99.90;;;;;;4947333;29;20035;-93
2021/01/18 02:08:06;;;;;;;0.00;0.00;;;2.60;99.90;;;;;;4977082;28;20035;-93
2021/01/18 02:10:33;;;;;;;0.00;0.00;;;2.60;99.90;;;;;;4955375;29;20046;-93
2021/01/18 02:13:00;;;;;;;0.00;0.00;;;2.70;99.90;;;;;;4949027;29;20035;-93
2021/01/18 02:15:45;;;;;;;0.00;0.00;;;2.70;99.90;;;;;;4950242;29;20031;-93
2021/01/18 02:18:29;;;;;;;0.00;0.00;;;2.50;99.90;;;;;;4952668;29;20078;-93
2021/01/18 02:21:14;;;;;;;0.00;0.00;;;2.40;99.90;;;;;;4952853;28;20036;-93
2021/01/18 02:24:17;;;;;;;0.00;0.00;;;2.40;99.90;;;;;;4972888;28;20058;-92
2021/01/18 02:27:48;;;;;;;0.00;0.00;;;2.30;99.90;;;;;;4985475;28;20045;-92
2021/01/18 02:30:44;;;;;;;0.00;0.00;;;2.30;99.90;;;;;;4955698;28;20074;-92
2021/01/18 02:33:26;;;;;;;0.00;0.00;;;2.20;99.90;;;;;;4975937;28;20042;-92
2021/01/18 02:36:13;;;;;;;0.00;0.00;;;2.10;99.90;;;;;;4976062;28;20030;-92
2021/01/18 02:39:17;;;;;;;0.00;0.00;;;2.00;99.90;;;;;;4975701;28;20376;-92
2021/01/18 02:41:59;;;;;;;0.00;0.00;;;1.90;99.90;;;;;;4975746;28;20049;-92
2021/01/18 02:44:27;;;;;;;0.00;0.00;;;2.00;99.90;;;;;;4976150;28;20049;-92
2021/01/18 02:46:53;;;;;;;0.00;0.00;;;2.00;99.90;;;;;;4975925;28;20058;-92
2021/01/18 02:49:21;;;;;;;0.40;0.38;;;1.90;99.90;;;;;;4991864;28;20053;-92
2021/01/18 02:51:52;;;;;;;0.00;0.00;;;2.20;99.90;;;;;;4996896;28;20072;-92
2021/01/18 02:54:18;;;;;;;0.00;0.00;;;2.00;99.90;;;;;;5011441;28;20049;-92
2021/01/18 02:56:51;;;;;;;0.00;0.00;;;1.90;99.90;;;;;;5011660;28;20042;-90
2021/01/18 02:59:18;;;;;;;0.00;0.00;;;2.00;99.90;;;;;;5011364;28;20052;-91
2021/01/18 03:02:15;;;;;;;0.00;0.00;;;2.00;99.90;;;;;;4995182;28;20038;-92
2021/01/18 03:05:02;;;;;;;0.00;0.00;;;2.00;99.90;;;;;;5011650;28;20064;-92
2021/01/18 03:07:42;;;;;;;0.00;0.00;;;1.90;99.90;;;;;;5007911;28;20035;-92
2021/01/18 03:10:17;;;;;;;0.00;0.00;;;2.10;99.90;;;;;;5007983;28;20031;-91
2021/01/18 03:13:06;;;;;;;0.00;0.00;;;2.10;99.90;;;;;;5007782;28;20113;-92
2021/01/18 03:15:38;;;;;;;0.00;0.00;;;2.00;99.90;;;;;;5007823;28;20031;-91
2021/01/18 03:18:07;;;;;;;0.00;0.00;;;1.90;99.90;;;;;;4991509;28;20442;-91
2021/01/18 03:20:33;;;;;;;0.00;0.00;;;2.00;99.90;;;;;;4991493;28;20531;-92
2021/01/18 03:23:07;;;;;;;0.00;0.00;;;2.10;99.90;;;;;;5007640;28;20034;-92
2021/01/18 03:25:56;;;;;;;0.00;0.00;;;2.00;99.90;;;;;;5008001;28;20434;-92
2021/01/18 03:28:23;;;;;;;0.00;0.00;;;2.10;99.90;;;;;;5007574;28;20031;-91
2021/01/18 03:30:50;;;;;;;0.10;0.10;;;1.90;99.90;;;;;;5007672;28;20138;-92
2021/01/18 03:33:17;;;;;;;0.00;0.00;;;2.00;99.90;;;;;;5007557;28;20034;-92
2021/01/18 03:35:43;;;;;;;0.00;0.00;;;2.10;99.90;;;;;;5007467;28;20030;-91
2021/01/18 03:38:09;;;;;;;0.10;0.10;;;2.00;99.90;;;;;;5007353;28;20057;-92
2021/01/18 03:40:37;;;;;;;0.00;0.00;;;2.00;99.90;;;;;;5006987;28;20034;-92
2021/01/18 03:43:05;;;;;;;0.00;0.00;;;1.80;99.90;;;;;;4990784;28;20043;-91
2021/01/18 03:45:35;;;;;;;0.00;0.00;;;1.80;99.90;;;;;;5007316;28;20026;-92
2021/01/18 03:48:02;;;;;;;0.00;0.00;;;1.80;99.90;;;;;;5007138;28;20048;-90
2021/01/18 03:50:28;;;;;;;0.00;0.00;;;1.80;99.90;;;;;;5007672;28;20038;-92
2021/01/18 03:52:53;;;;;;;0.00;0.00;;;1.90;99.90;;;;;;5007651;28;20058;-91
2021/01/18 03:55:20;;;;;;;0.00;0.00;;;1.80;99.90;;;;;;5006954;28;20037;-92
2021/01/18 03:57:48;;;;;;;0.00;0.00;;;2.00;99.90;;;;;;5006746;28;20035;-92
2021/01/18 04:00:15;;;;;;;0.00;0.00;;;1.90;99.90;;;;;;5023141;28;20558;-91
2021/01/18 04:02:41;;;;;;;1.65;1.55;;;1.90;99.90;;;;;;5023141;28;20051;-92
2021/01/18 04:05:09;;;;;;;0.00;0.00;;;1.90;99.90;;;;;;5006762;28;20034;-91
2021/01/18 04:07:34;;;;;;;0.00;0.00;;;2.00;99.90;;;;;;5003802;28;20427;-92
2021/01/18 04:10:00;;;;;;;0.00;0.00;;;2.00;99.90;;;;;;4987230;28;20036;-93
2021/01/18 04:12:26;;;;;;;0.00;0.00;;;2.00;99.90;;;;;;4987089;28;20046;-92
2021/01/18 04:14:52;;;;;;;0.00;0.00;;;2.00;99.90;;;;;;4987484;28;20038;-92
2021/01/18 04:17:18;;;;;;;0.00;0.00;;;2.10;99.90;;;;;;4987228;28;20031;-92
2021/01/18 04:19:43;;;;;;;0.00;0.00;;;1.90;99.90;;;;;;4987309;28;20571;-91
2021/01/18 04:22:09;;;;;;;0.00;0.00;;;2.00;99.90;;;;;;5003314;28;20540;-93
2021/01/18 04:24:36;;;;;;;0.00;0.00;;;2.00;99.90;;;;;;4987051;28;20031;-91
2021/01/18 04:27:06;;;;;;;0.00;0.00;;;2.00;99.90;;;;;;4986935;28;20126;-92
2021/01/18 04:29:31;;;;;;;0.00;0.00;;;1.90;99.90;;;;;;4986850;28;20030;-92
2021/01/18 04:31:57;;;;;;;0.00;0.00;;;2.00;99.90;;;;;;4986753;28;20043;-91
2021/01/18 04:34:23;;;;;;;0.00;0.00;;;2.10;99.90;;;;;;4986938;28;20034;-92
2021/01/18 04:36:48;;;;;;;0.00;0.00;;;2.20;99.90;;;;;;4987038;28;20037;-91
2021/01/18 04:39:14;;;;;;;0.00;0.00;;;2.10;99.90;;;;;;4986304;28;20027;-92
2021/01/18 04:41:43;;;;;;;0.00;0.00;;;2.10;99.90;;;;;;4986835;28;20058;-91
2021/01/18 04:44:10;;;;;;;0.00;0.00;;;2.00;99.90;;;;;;4986943;28;20066;-92
2021/01/18 04:46:41;;;;;;;0.00;0.00;;;2.00;99.90;;;;;;5002828;28;20483;-91
2021/01/18 04:49:11;;;;;;;0.00;0.00;;;1.90;99.90;;;;;;4986646;28;20037;-91
2021/01/18 04:51:42;;;;;;;0.00;0.00;;;1.90;99.90;;;;;;4989826;28;20486;-91
2021/01/18 04:54:13;;;;;;;0.00;0.00;;;2.00;99.90;;;;;;5005854;28;20050;-91
2021/01/18 04:57:01;;;;;;;0.00;0.00;;;1.90;99.90;;;;;;5005974;28;20034;-92
2021/01/18 04:59:31;;;;;;;0.00;0.00;;;1.90;99.90;;;;;;5005982;28;20034;-92
2021/01/18 05:02:07;;;;;;;0.00;0.00;;;2.00;99.90;;;;;;5006027;28;20165;-92
2021/01/18 05:04:37;;;;;;;0.00;0.00;;;2.10;99.90;;;;;;5022422;28;20034;-91
2021/01/18 05:07:12;;;;;;;0.00;0.00;;;2.10;99.90;;;;;;5002598;28;20315;-91
2021/01/18 05:09:48;;;;;;;0.10;0.10;;;2.10;99.90;;;;;;4986590;28;20039;-92
2021/01/18 05:12:13;;;;;;;0.00;0.00;;;2.20;99.90;;;;;;4985965;28;20047;-91
2021/01/18 05:14:41;;;;;;;0.00;0.00;;;2.00;99.90;;;;;;4986275;28;20062;-90
2021/01/18 05:17:09;;;;;;;0.00;0.00;;;2.10;99.90;;;;;;4986167;28;20064;-92
2021/01/18 05:19:35;;;;;;;0.00;0.00;;;2.40;99.90;;;;;;4986133;28;20031;-90
2021/01/18 05:22:01;;;;;;;0.00;0.00;;;2.30;99.90;;;;;;4986083;28;20035;-92
2021/01/18 05:24:27;;;;;;;0.00;0.00;;;2.30;99.90;;;;;;4986270;28;20031;-91
2021/01/18 05:27:03;;;;;;;0.00;0.00;;;2.10;99.90;;;;;;5002368;28;20107;-92
2021/01/18 05:29:31;;;;;;;0.00;0.00;;;2.10;99.90;;;;;;5002633;28;20031;-91
2021/01/18 05:31:56;;;;;;;0.00;0.00;;;2.00;99.90;;;;;;4986026;28;20066;-92
2021/01/18 05:34:26;;;;;;;0.00;0.00;;;2.00;99.90;;;;;;4986144;28;20090;-91
2021/01/18 05:36:54;;;;;;;0.00;0.00;;;2.10;99.90;;;;;;4986098;28;20035;-92
2021/01/18 05:39:33;;;;;;;0.00;0.00;;;2.20;99.90;;;;;;5002269;28;20031;-91
2021/01/18 05:42:00;;;;;;;0.00;0.00;;;2.10;99.90;;;;;;4985954;28;20058;-91
2021/01/18 05:44:37;;;;;;;0.00;0.00;;;2.30;99.90;;;;;;4985942;28;20027;-92
2021/01/18 05:47:05;;;;;;;0.00;0.00;;;2.20;99.90;;;;;;4985794;28;20038;-91
2021/01/18 05:49:48;;;;;;;0.00;0.00;;;2.30;99.90;;;;;;4985840;28;20166;-92
2021/01/18 05:52:25;;;;;;;0.00;0.00;;;2.20;99.90;;;;;;4998306;28;20491;-92
2021/01/18 05:55:11;;;;;;;0.00;0.00;;;2.30;99.90;;;;;;5009362;28;20308;-92
2021/01/18 05:57:37;;;;;;;0.00;0.00;;;2.30;99.90;;;;;;5008643;28;20030;-91
2021/01/18 06:00:04;;;;;;;0.00;0.00;;;2.30;99.90;;;;;;5008787;28;20157;-92
2021/01/18 06:02:30;;;;;;;0.20;0.20;;;2.40;99.90;;;;;;5025480;28;20030;-92
2021/01/18 06:04:56;;;;;;;0.00;0.00;;;2.40;99.90;;;;;;5008835;28;20038;-92
2021/01/18 06:07:22;;;;;;;0.00;0.00;;;2.40;99.90;;;;;;4999458;28;20037;-94
2021/01/18 06:09:49;;;;;;;0.05;0.05;;;2.40;99.90;;;;;;4989314;28;20041;-95
2021/01/18 06:12:23;;;;;;;0.00;0.00;;;2.50;99.90;;;;;;4970257;28;20047;-94
2021/01/18 06:15:13;;;;;;;0.00;0.00;;;2.50;99.90;;;;;;4990088;28;20037;-93
2021/01/18 06:17:43;;;;;;;0.00;0.00;;;2.50;99.90;;;;;;4989119;28;20030;-94
2021/01/18 06:20:16;;;;;;;0.00;0.00;;;2.40;99.90;;;;;;4988921;28;20066;-94
2021/01/18 06:22:47;;;;;;;0.00;0.00;;;2.40;99.90;;;;;;5005384;28;20039;-94
2021/01/18 06:25:14;;;;;;;0.00;0.00;;;2.30;99.90;;;;;;4989015;28;20039;-93
2021/01/18 06:27:40;;;;;;;0.00;0.00;;;2.30;99.90;;;;;;4990394;28;20529;-93
2021/01/18 06:30:25;;;;;;;0.00;0.00;;;2.40;99.90;;;;;;4988631;28;20062;-94
2021/01/18 06:32:52;;;;;;;0.00;0.00;;;2.40;99.90;;;;;;4989543;28;20049;-94
2021/01/18 06:35:28;;;;;;;0.00;0.00;;;2.40;99.90;;;;;;5005046;28;20037;-94
2021/01/18 06:38:03;;;;;;;0.00;0.00;;;2.30;99.90;;;;;;5004932;28;20027;-93
2021/01/18 06:40:37;;;;;;;0.40;0.40;;;2.30;99.90;;;;;;5004857;28;20175;-92
2021/01/18 06:43:04;;;;;;;0.00;0.00;;;2.40;99.90;;;;;;4980605;28;20444;-90
2021/01/18 06:45:35;;;;;;;0.00;0.00;;;2.40;99.90;;;;;;4986976;28;20046;-91
2021/01/18 06:48:03;;;;;;;0.00;0.00;;;2.40;99.90;;;;;;4986629;28;20085;-93
2021/01/18 06:50:37;;;;;;;0.00;0.00;;;2.40;99.90;;;;;;4987090;28;20035;-92
2021/01/18 06:53:23;;;;;;;0.00;0.00;;;2.40;99.90;;;;;;4987461;28;20503;-91
2021/01/18 06:56:13;;;;;;;0.00;0.00;;;2.40;99.90;;;;;;4988139;28;20082;-92
2021/01/18 06:58:57;;;;;;;0.00;0.00;;;2.50;99.90;;;;;;4988302;28;20035;-93
2021/01/18 07:01:31;;;;;;;0.00;0.00;;;2.50;99.90;;;;;;4984427;28;20035;-93
2021/01/18 07:04:06;;;;;;;0.00;0.00;;;2.50;99.90;;;;;;4985298;28;20027;-94
2021/01/18 07:06:35;;;;;;;0.00;0.00;;;2.40;99.90;;;;;;4987801;28;20026;-92
2021/01/18 07:09:07;;;;;;;0.00;0.00;;;2.30;99.90;;;;;;4971763;28;20058;-93
2021/01/18 07:11:34;;;;;;;0.00;0.00;;;2.30;99.90;;;;;;4970742;28;20043;-91
2021/01/18 07:14:04;;;;;;;0.00;0.00;;;2.40;99.90;;;;;;4971863;28;20502;-93
2021/01/18 07:16:30;;;;;;;;;;;2.30;99.90;;;;;;4988401;28;20027;-93
2021/01/18 07:18:57;;;;;;;0.00;0.00;;;2.40;99.90;;;;;;4987989;28;20470;-93
2021/01/18 07:21:27;;;;;;;0.00;0.00;;;2.50;99.90;;;;;;4971864;28;20050;-92
2021/01/18 07:23:58;;;;;;;0.00;0.00;;;2.50;99.90;;;;;;4971911;28;20037;-92
2021/01/18 07:26:38;;;;;;;0.00;0.00;;;2.50;99.90;;;;;;4987638;28;20038;-93
2021/01/18 07:29:07;;;;;;;0.00;0.00;;;2.60;99.90;;;;;;4971640;28;20039;-93
2021/01/18 07:31:43;;;;;;;0.00;0.00;;;2.70;99.90;;;;;;4971336;28;20039;-93
2021/01/18 07:34:13;;;;;;;0.32;0.32;;;2.60;99.90;;;;;;4987813;28;20443;-94
2021/01/18 07:36:40;;;;;;;0.00;0.00;;;2.60;99.90;;;;;;4971618;28;20046;-93
2021/01/18 07:39:25;;;;;;;0.00;0.00;;;2.60;99.90;;;;;;4971319;28;20043;-94
2021/01/18 07:41:51;;;;;;;0.00;0.00;;;2.50;99.90;;;;;;4987496;28;20034;-92
2021/01/18 07:44:41;;;;;;;0.00;0.00;;;2.60;99.90;;;;;;4971758;28;20030;-93
2021/01/18 07:47:11;;;;;;;;;;;2.60;99.90;;;;;;4987908;28;20110;-91
2021/01/18 07:49:38;;;;;;;0.00;0.00;;;2.70;99.90;;;;;;4987498;28;20009;-94
2021/01/18 07:52:19;;;;;;;0.00;0.00;;;2.70;99.90;;;;;;4993883;28;20034;-93
2021/01/18 07:54:46;;;;;;;0.00;0.00;;;2.70;99.90;;;;;;5009821;28;20053;-93
2021/01/18 07:57:35;;;;;;;0.00;0.00;;;2.80;99.90;;;;;;5009498;28;20113;-95
2021/01/18 08:00:19;;;;;;;0.00;0.00;;;2.80;99.90;;;;;;4987647;28;20034;-93
2021/01/18 08:02:53;;;;;;;0.00;0.00;;;2.90;99.90;;;;;;5009774;28;20045;-92
2021/01/18 08:05:32;;;;;;;5.25;2.80;;;2.90;99.90;;;;;;4993340;28;20040;-94
2021/01/18 08:08:07;;;;;;;0.00;0.00;;;2.90;99.90;;;;;;4975548;28;20041;-94
2021/01/18 08:10:54;;;;;;;4.65;4.38;;;3.00;99.90;;;;;;4986446;28;20046;-94
2021/01/18 08:13:43;;;;;;;0.00;0.00;;;3.00;99.90;;;;;;4985648;28;20054;-94
2021/01/18 08:16:20;;;;;;;1.33;1.23;;;3.00;99.90;;;;;;4970548;28;20073;-95
2021/01/18 08:18:59;;;;;;;0.00;0.00;;;3.00;99.90;;;;;;4986482;28;20035;-95
2021/01/18 08:21:34;;;;;;;0.03;0.03;;;3.00;99.90;;;;;;4986498;28;20030;-94
2021/01/18 08:24:04;;;;;;;0.85;0.85;;;3.10;99.90;;;;;;4970100;28;20026;-95
2021/01/18 08:26:58;;;;;;;0.00;0.00;;;3.10;99.90;;;;;;4985957;28;20038;-95
2021/01/18 08:29:52;;;;;;;1.25;1.25;;;3.20;99.90;;;;;;4986206;28;20484;-95
2021/01/18 08:32:36;;;;;;;0.00;0.00;;;3.20;99.90;;;;;;4969738;28;20046;-94
2021/01/18 08:35:08;;;;;;;0.35;0.35;;;3.30;99.90;;;;;;4986640;28;20041;-95
2021/01/18 08:37:36;;;;;;;0.00;0.00;;;3.30;99.90;;;;;;4970377;28;20063;-95
2021/01/18 08:40:16;;;;;;;0.00;0.00;;;3.30;99.90;;;;;;4986154;28;20065;-95
2021/01/18 08:42:44;;;;;;;0.00;0.00;;;3.30;99.90;;;;;;4986059;28;20089;-95
2021/01/18 08:45:21;;;;;;;0.20;0.15;;;3.30;99.90;;;;;;4970269;28;20134;-95
2021/01/18 08:47:58;;;;;;;0.10;0.10;;;3.40;99.90;;;;;;4971870;28;20035;-94
2021/01/18 08:50:30;;;;;;;0.00;0.00;;;3.40;99.90;;;;;;4973078;28;20056;-96
2021/01/18 08:53:26;;;;;;;0.32;0.20;;;3.40;99.90;;;;;;4989215;28;20057;-96
2021/01/18 08:55:57;;;;;;;1.65;1.60;;;3.40;99.90;;;;;;4976847;28;20145;-95
2021/01/18 09:01:31;;;;;;;0.00;0.00;;;3.50;99.90;;;;;;4973288;28;20050;-96
2021/01/18 09:04:24;;;;;;;0.00;0.00;;;3.50;99.90;;;;;;4973961;28;20063;-94
2021/01/18 09:06:50;;;;;;;0.20;0.20;;;3.50;99.90;;;;;;4962057;28;20027;-95
2021/01/18 09:09:24;;;;;;;0.00;0.00;;;3.50;99.90;;;;;;4974067;29;20023;-96
2021/01/18 09:11:53;;;;;;;0.00;0.00;;;3.60;99.90;;;;;;4974050;28;20058;-95
2021/01/18 09:14:23;;;;;;;0.15;0.15;;;3.60;99.90;;;;;;4975847;29;20023;-96
2021/01/18 09:16:51;;;;;;;0.00;0.00;;;3.60;99.90;;;;;;4940712;29;20120;-92
2021/01/18 09:19:17;;;;;;;1.17;1.17;;;3.60;99.90;;;;;;4957814;29;20035;-96
2021/01/18 09:21:44;;;;;;;0.00;0.00;;;3.70;99.90;;;;;;4973967;29;20047;-96
2021/01/18 09:24:15;;;;;;;0.57;0.57;;;3.80;99.90;;;;;;4972596;28;20039;-96
2021/01/18 09:26:44;;;;;;;0.68;0.68;;;3.80;99.90;;;;;;4963866;29;20091;-94
2021/01/18 09:45:17;;;;;;;3.20;0.75;;;4.40;99.90;;;;;;5027502;23;20075;-96
2021/01/18 09:50:26;;;;;;;;;;;4.40;99.90;;;;;;4978175;28;20073;-94
2021/01/18 09:52:53;;;;;;;1.08;1.08;;;4.40;99.90;;;;;;4980882;28;19922;-96
2021/01/18 09:55:20;;;;;;;0.22;0.22;;;4.40;99.90;;;;;;4980204;28;20019;-95
2021/01/18 09:57:54;;;;;;;0.00;0.00;;;4.40;99.90;;;;;;4996298;28;20071;-96
2021/01/18 10:00:21;;;;;;;0.45;0.10;;;4.30;99.90;;;;;;4978554;28;20027;-96
2021/01/18 10:02:49;;;;;;;0.00;0.00;;;4.30;99.90;;;;;;4978314;28;20031;-94
2021/01/18 10:05:29;;;;;;;0.00;0.00;;;4.30;99.90;;;;;;4981704;29;20035;-96
2021/01/18 10:07:58;;;;;;;0.00;0.00;;;4.30;99.90;;;;;;4981375;28;20035;-96
2021/01/18 10:10:39;;;;;;;0.00;0.00;;;4.30;99.90;;;;;;4980418;28;20043;-90
2021/01/18 10:13:17;;;;;;;0.00;0.00;;;4.30;99.90;;;;;;4983327;28;20035;-96
2021/01/18 10:15:49;;;;;;;0.00;0.00;;;4.40;99.90;;;;;;4982456;28;20081;-95
2021/01/18 10:18:32;;;;;;;1.00;0.40;;;4.40;99.90;;;;;;4979934;28;20155;-95
2021/01/18 10:21:00;;;;;;;0.43;0.37;;;4.40;99.90;;;;;;4983338;28;20094;-93
2021/01/18 10:23:34;;;;;;;0.27;0.27;;;4.50;99.90;;;;;;4982633;28;20275;-96
2021/01/18 10:26:23;;;;;;;0.17;0.00;;;4.50;99.90;;;;;;4979816;28;20283;-96
2021/01/18 10:28:54;;;;;;;0.68;0.68;;;4.40;99.90;;;;;;4994652;28;20023;-96
2021/01/18 10:34:24;;;;;;;0.45;0.45;;;4.40;99.90;;;;;;4984681;23;19922;-94
2021/01/18 10:36:54;;;;;;;0.50;0.47;;;4.50;99.90;;;;;;4979321;28;20038;-95
2021/01/18 10:39:41;;;;;;;0.00;0.00;;;4.50;99.90;;;;;;4976461;29;20031;-95
2021/01/18 10:45:32;;;;;;;0.00;0.00;;;4.50;99.90;;;;;;4934147;29;20135;-96
2021/01/18 10:48:01;;;;;;;2.08;0.52;;;4.50;99.90;;;;;;4939365;29;20017;-96
2021/01/18 10:50:31;;;;;;;0.00;0.00;;;4.60;99.90;;;;;;4954086;29;20024;-95
2021/01/18 10:53:09;;;;;;;0.00;0.00;;;4.70;99.90;;;;;;5074906;23;20480;-96
2021/01/18 10:55:40;;;;;;;0.08;0.08;;;4.70;99.90;;;;;;4987633;23;20039;-96
2021/01/18 10:58:06;;;;;;;0.00;0.00;;;4.80;99.90;;;;;;4956609;29;20036;-96
2021/01/18 11:00:37;;;;;;;1.38;1.33;;;4.70;99.90;;;;;;4955623;29;20042;-93
2021/01/18 11:03:03;;;;;;;;;;;4.70;99.90;;;;;;4957756;29;20012;-96
2021/01/18 11:05:35;;;;;;;1.33;0.55;;;4.80;99.90;;;;;;4975234;29;19906;-96
2021/01/18 11:08:10;;;;;;;0.10;0.10;;;4.80;99.90;;;;;;4972091;28;20048;-96
2021/01/18 11:13:26;;;;;;;3.45;1.45;;;4.80;99.90;;;;;;4976098;28;20055;-95
2021/01/18 11:15:56;;;;;;;0.00;0.00;;;4.80;99.90;;;;;;5068117;23;20099;-96
2021/01/18 11:18:27;;;;;;;0.00;0.00;;;4.80;99.90;;;;;;4981199;28;20046;-95
2021/01/18 11:20:55;;;;;;;0.00;0.00;;;4.80;99.90;;;;;;4978861;28;20118;-96
2021/01/18 11:23:27;;;;;;;0.00;0.00;;;4.70;99.90;;;;;;4979702;28;20143;-96
2021/01/18 11:26:00;;;;;;;0.00;0.00;;;4.80;99.90;;;;;;5009400;23;20058;-96
2021/01/18 11:28:31;;;;;;;0.43;0.43;;;4.80;99.90;;;;;;4996349;28;20037;-94
2021/01/18 11:31:32;;;;;;;6.30;6.03;;;4.80;99.90;;;;;;4994858;28;20043;-96
2021/01/18 11:34:21;;;;;;;0.00;0.00;;;4.90;99.90;;;;;;4978625;28;20034;-96
2021/01/18 11:36:50;;;;;;;0.00;0.00;;;5.00;99.90;;;;;;4978491;28;20027;-95
2021/01/18 11:39:22;;;;;;;0.00;0.00;;;5.00;99.90;;;;;;4994907;28;20034;-96
2021/01/18 11:42:13;;;;;;;0.98;0.98;;;5.00;99.90;;;;;;4976351;28;20046;-96
2021/01/18 11:44:39;;;;;;;0.00;0.00;;;5.00;99.90;;;;;;4921512;29;20067;-95
2021/01/18 11:47:14;;;;;;;0.00;0.00;;;5.10;99.90;;;;;;4939752;29;20087;-96
2021/01/18 11:49:42;;;;;;;0.10;0.10;;;5.10;99.90;;;;;;4952536;29;20095;-95
2021/01/18 11:52:09;;;;;;;0.00;0.00;;;5.10;99.90;;;;;;4940365;29;20012;-95
2021/01/18 11:54:36;;;;;;;0.75;0.52;;;5.10;99.90;;;;;;4950785;29;20042;-96
2021/01/18 11:57:04;;;;;;;0.65;0.65;;;5.10;99.90;;;;;;4935547;29;20040;-96
2021/01/18 11:59:45;;;;;;;0.00;0.00;;;5.10;99.90;;;;;;4938623;29;20027;-96
2021/01/18 12:02:11;;;;;;;;;;;5.20;99.90;;;;;;4936639;29;20047;-95
2021/01/18 12:04:37;;;;;;;0.00;0.00;;;5.10;99.90;;;;;;4935557;29;19907;-96
2021/01/18 12:07:03;;;;;;;1.27;1.20;;;5.10;99.90;;;;;;4936472;29;20122;-94
2021/01/18 12:09:30;;;;;;;0.00;0.00;;;5.10;99.90;;;;;;4939532;29;20054;-96
2021/01/18 12:12:08;;;;;;;0.00;0.00;;;5.10;99.90;;;;;;4998989;23;20064;-96
2021/01/18 12:14:48;;;;;;;0.00;0.00;;;5.10;99.90;;;;;;4955125;28;20019;-94
2021/01/18 12:17:16;;;;;;;0.10;0.03;;;5.20;99.90;;;;;;4958688;29;20027;-92
2021/01/18 12:19:48;;;;;;;0.00;0.00;;;5.20;99.90;;;;;;4986122;28;20031;-94
2021/01/18 12:22:17;;;;;;;0.00;0.00;;;5.20;99.90;;;;;;4954865;29;20043;-95
2021/01/18 12:24:44;;;;;;;0.00;0.00;;;5.30;99.90;;;;;;4967912;28;20031;-96
2021/01/18 12:27:10;;;;;;;0.00;0.00;;;5.30;99.90;;;;;;4967055;29;20070;-93
2021/01/18 12:29:36;;;;;;;0.00;0.00;;;5.40;99.90;;;;;;4951033;29;20487;-92
2021/01/18 12:32:02;;;;;;;0.17;0.17;;;5.40;99.90;;;;;;4950881;29;20054;-91
2021/01/18 12:34:27;;;;;;;0.00;0.00;;;5.40;99.90;;;;;;4951022;29;20455;-95
2021/01/18 12:36:54;;;;;;;0.00;0.00;;;5.40;99.90;;;;;;4966751;28;20038;-92
2021/01/18 12:39:20;;;;;;;0.00;0.00;;;5.40;99.90;;;;;;4951079;29;20033;-96
2021/01/18 12:41:46;;;;;;;0.00;0.00;;;5.40;99.90;;;;;;4967072;28;20133;-95
2021/01/18 12:44:12;;;;;;;0.08;0.00;;;5.40;99.90;;;;;;4966966;28;20055;-95
2021/01/18 12:46:38;;;;;;;0.40;0.10;;;5.40;99.90;;;;;;4967193;28;20779;-94
2021/01/18 12:49:03;;;;;;;2.65;0.10;;;5.40;99.90;;;;;;4951046;29;20054;-92
2021/01/18 12:51:29;;;;;;;0.63;0.40;;;5.50;99.90;;;;;;4950513;29;20095;-95
2021/01/18 12:53:55;;;;;;;0.47;0.47;;;5.50;99.90;;;;;;4950558;29;20118;-93
2021/01/18 12:56:28;;;;;;;0.00;0.00;;;5.40;99.90;;;;;;4950537;29;20059;-93
2021/01/18 12:58:55;;;;;;;0.00;0.00;;;5.40;99.90;;;;;;4950268;29;20040;-96
2021/01/18 13:01:34;;;;;;;0.00;0.00;;;5.40;99.90;;;;;;4951070;29;20055;-94
2021/01/18 13:04:01;;;;;;;0.10;0.10;;;5.40;99.90;;;;;;4950891;29;20035;-95
2021/01/18 13:06:40;;;;;;;0.00;0.00;;;5.40;99.90;;;;;;4950780;29;20035;-96
2021/01/18 13:09:14;;;;;;;0.00;0.00;;;5.40;99.90;;;;;;4950476;29;20083;-94
2021/01/18 13:11:51;;;;;;;0.00;0.00;;;5.40;99.90;;;;;;4950294;29;20031;-94
2021/01/18 13:14:22;;;;;;;0.10;0.10;;;5.40;99.90;;;;;;4950762;29;20035;-96
2021/01/18 13:16:50;;;;;;;0.00;0.00;;;5.50;99.90;;;;;;4950633;29;20031;-94
2021/01/18 13:19:18;;;;;;;0.00;0.00;;;5.50;99.90;;;;;;4950552;29;20035;-95
2021/01/18 13:21:44;;;;;;;0.00;0.00;;;5.50;99.90;;;;;;4950464;29;20102;-95
2021/01/18 13:24:10;;;;;;;0.00;0.00;;;5.50;99.90;;;;;;4950840;29;20058;-96
2021/01/18 13:26:37;;;;;;;0.00;0.00;;;5.50;99.90;;;;;;4952285;29;20035;-95
2021/01/18 13:29:05;;;;;;;0.43;0.40;;;5.50;99.90;;;;;;4952533;29;20035;-95
2021/01/18 13:31:44;;;;;;;0.00;0.00;;;5.60;99.90;;;;;;4951016;29;20050;-94
2021/01/18 13:34:11;;;;;;;4.05;3.85;;;5.60;99.90;;;;;;4950606;29;20034;-96
2021/01/18 13:36:37;;;;;;;0.00;0.00;;;5.70;99.90;;;;;;4950426;29;20480;-96
2021/01/18 13:39:06;;;;;;;0.00;0.00;;;5.70;99.90;;;;;;4950378;29;20035;-95
2021/01/18 13:41:32;;;;;;;0.95;0.20;;;5.70;99.90;;;;;;4950032;29;20031;-94
2021/01/18 13:43:58;;;;;;;0.00;0.00;;;5.70;99.90;;;;;;4950190;29;20043;-95
2021/01/18 13:46:26;;;;;;;0.00;0.00;;;5.70;99.90;;;;;;4950371;29;20095;-96
2021/01/18 13:48:53;;;;;;;0.70;0.57;;;5.70;99.90;;;;;;4950282;29;20035;-96
2021/01/18 13:51:21;;;;;;;0.00;0.00;;;5.80;99.90;;;;;;4949956;29;20038;-95
2021/01/18 13:53:47;;;;;;;0.10;0.00;;;5.80;99.90;;;;;;4949874;29;20043;-93